sensor_id;sensor_type;location;lat;lon;timestamp;temperature;humidity
25046;DHT22;13044;49.304;12.840;2023-09-19T00:00:58;16.40;99.90
25046;DHT22;13044;49.304;12.840;2023-09-19T00:03:25;16.50;99.90
25046;DHT22;13044;49.304;12.840;2023-09-19T00:05:52;16.40;99.90
25046;DHT22;13044;49.304;12.840;2023-09-19T00:08:19;16.30;99.90
25046;DHT22;13044;49.304;12.840;2023-09-19T00:10:50;16.30;99.90
25046;DHT22;13044;49.304;12.840;2023-09-19T00:13:17;16.20;99.90
25046;DHT22;13044;49.304;12.840;2023-09-19T00:15:47;16.10;99.90
25046;DHT22;13044;49.304;12.840;2023-09-19T00:18:19;16.20;99.90
25046;DHT22;13044;49.304;12.840;2023-09-19T00:20:51;16.20;99.90
25046;DHT22;13044;49.304;12.840;2023-09-19T00:23:19;16.20;99.90
25046;DHT22;13044;49.304;12.840;2023-09-19T00:25:47;16.30;99.90
25046;DHT22;13044;49.304;12.840;2023-09-19T00:28:14;16.20;99.90
25046;DHT22;13044;49.304;12.840;2023-09-19T00:30:43;16.20;99.90
25046;DHT22;13044;49.304;12.840;2023-09-19T00:33:11;16.20;99.90
25046;DHT22;13044;49.304;12.840;2023-09-19T00:38:17;16.20;99.90
25046;DHT22;13044;49.304;12.840;2023-09-19T00:40:46;16.30;99.90
25046;DHT22;13044;49.304;12.840;2023-09-19T00:43:14;16.30;99.90
25046;DHT22;13044;49.304;12.840;2023-09-19T00:45:44;16.30;99.90
25046;DHT22;13044;49.304;12.840;2023-09-19T00:48:12;16.30;99.90
25046;DHT22;13044;49.304;12.840;2023-09-19T00:50:41;16.30;99.90
25046;DHT22;13044;49.304;12.840;2023-09-19T00:53:09;16.30;99.90
25046;DHT22;13044;49.304;12.840;2023-09-19T00:55:40;16.30;99.90
25046;DHT22;13044;49.304;12.840;2023-09-19T00:58:09;16.30;99.90
25046;DHT22;13044;49.304;12.840;2023-09-19T01:00:37;16.30;99.90
25046;DHT22;13044;49.304;12.840;2023-09-19T01:03:05;16.30;99.90
25046;DHT22;13044;49.304;12.840;2023-09-19T01:05:33;16.30;99.90
25046;DHT22;13044;49.304;12.840;2023-09-19T01:08:01;16.30;99.90
25046;DHT22;13044;49.304;12.840;2023-09-19T01:10:28;16.30;99.90
25046;DHT22;13044;49.304;12.840;2023-09-19T01:13:31;16.30;99.90
25046;DHT22;13044;49.304;12.840;2023-09-19T01:30:57;16.50;99.90
25046;DHT22;13044;49.304;12.840;2023-09-19T01:33:27;16.50;99.90
25046;DHT22;13044;49.304;12.840;2023-09-19T01:35:54;16.50;99.90
25046;DHT22;13044;49.304;12.840;2023-09-19T01:38:24;16.50;99.90
25046;DHT22;13044;49.304;12.840;2023-09-19T01:41:02;16.50;99.90
25046;DHT22;13044;49.304;12.840;2023-09-19T01:43:38;16.50;99.90
25046;DHT22;13044;49.304;12.840;2023-09-19T01:46:14;16.50;99.90
25046;DHT22;13044;49.304;12.840;2023-09-19T01:54:41;16.50;99.90
25046;DHT22;13044;49.304;12.840;2023-09-19T01:57:51;16.50;99.90
25046;DHT22;13044;49.304;12.840;2023-09-19T02:00:28;16.50;99.90
25046;DHT22;13044;49.304;12.840;2023-09-19T02:02:56;16.50;99.90
25046;DHT22;13044;49.304;12.840;2023-09-19T02:05:26;16.50;99.90
25046;DHT22;13044;49.304;12.840;2023-09-19T02:07:54;16.50;99.90
25046;DHT22;13044;49.304;12.840;2023-09-19T02:10:22;16.50;99.90
25046;DHT22;13044;49.304;12.840;2023-09-19T02:12:50;16.50;99.90
25046;DHT22;13044;49.304;12.840;2023-09-19T02:15:19;16.50;99.90
25046;DHT22;13044;49.304;12.840;2023-09-19T02:17:46;16.50;99.90
25046;DHT22;13044;49.304;12.840;2023-09-19T02:20:13;16.50;99.90
25046;DHT22;13044;49.304;12.840;2023-09-19T02:22:43;16.50;99.90
25046;DHT22;13044;49.304;12.840;2023-09-19T02:25:11;16.50;99.90
25046;DHT22;13044;49.304;12.840;2023-09-19T02:27:38;16.40;99.90
25046;DHT22;13044;49.304;12.840;2023-09-19T02:30:06;16.40;99.90
25046;DHT22;13044;49.304;12.840;2023-09-19T02:32:33;16.50;99.90
25046;DHT22;13044;49.304;12.840;2023-09-19T02:35:06;16.50;99.90
25046;DHT22;13044;49.304;12.840;2023-09-19T02:37:33;16.50;99.90
25046;DHT22;13044;49.304;12.840;2023-09-19T02:40:01;16.50;99.90
25046;DHT22;13044;49.304;12.840;2023-09-19T02:42:29;16.50;99.90
25046;DHT22;13044;49.304;12.840;2023-09-19T02:44:56;16.50;99.90
25046;DHT22;13044;49.304;12.840;2023-09-19T02:47:23;16.50;99.90
25046;DHT22;13044;49.304;12.840;2023-09-19T02:49:51;16.50;99.90
25046;DHT22;13044;49.304;12.840;2023-09-19T02:52:17;16.50;99.90
25046;DHT22;13044;49.304;12.840;2023-09-19T02:54:44;16.50;99.90
25046;DHT22;13044;49.304;12.840;2023-09-19T02:57:11;16.50;99.90
25046;DHT22;13044;49.304;12.840;2023-09-19T02:59:40;16.50;99.90
25046;DHT22;13044;49.304;12.840;2023-09-19T03:02:08;16.50;99.90
25046;DHT22;13044;49.304;12.840;2023-09-19T03:04:36;16.50;99.90
25046;DHT22;13044;49.304;12.840;2023-09-19T03:07:03;16.50;99.90
25046;DHT22;13044;49.304;12.840;2023-09-19T03:09:30;16.50;99.90
25046;DHT22;13044;49.304;12.840;2023-09-19T03:11:57;16.50;99.90
25046;DHT22;13044;49.304;12.840;2023-09-19T03:14:26;16.50;99.90
25046;DHT22;13044;49.304;12.840;2023-09-19T03:16:56;16.50;99.90
25046;DHT22;13044;49.304;12.840;2023-09-19T03:19:23;16.50;99.90
25046;DHT22;13044;49.304;12.840;2023-09-19T03:21:52;16.50;99.90
25046;DHT22;13044;49.304;12.840;2023-09-19T03:24:20;16.50;99.90
25046;DHT22;13044;49.304;12.840;2023-09-19T03:26:46;16.50;99.90
25046;DHT22;13044;49.304;12.840;2023-09-19T03:29:13;16.50;99.90
25046;DHT22;13044;49.304;12.840;2023-09-19T03:31:40;16.40;99.90
25046;DHT22;13044;49.304;12.840;2023-09-19T03:34:07;16.40;99.90
25046;DHT22;13044;49.304;12.840;2023-09-19T03:36:35;16.30;99.90
25046;DHT22;13044;49.304;12.840;2023-09-19T03:39:02;16.30;99.90
25046;DHT22;13044;49.304;12.840;2023-09-19T03:41:32;16.30;99.90
25046;DHT22;13044;49.304;12.840;2023-09-19T03:44:03;16.40;99.90
25046;DHT22;13044;49.304;12.840;2023-09-19T03:46:30;16.40;99.90
25046;DHT22;13044;49.304;12.840;2023-09-19T03:48:58;16.40;99.90
25046;DHT22;13044;49.304;12.840;2023-09-19T03:51:28;16.40;99.90
25046;DHT22;13044;49.304;12.840;2023-09-19T03:53:56;16.50;99.90
25046;DHT22;13044;49.304;12.840;2023-09-19T03:56:22;16.50;99.90
25046;DHT22;13044;49.304;12.840;2023-09-19T03:58:49;16.50;99.90
25046;DHT22;13044;49.304;12.840;2023-09-19T04:01:17;16.50;99.90
25046;DHT22;13044;49.304;12.840;2023-09-19T04:03:45;16.50;99.90
25046;DHT22;13044;49.304;12.840;2023-09-19T04:06:14;16.50;99.90
25046;DHT22;13044;49.304;12.840;2023-09-19T04:08:41;16.50;99.90
25046;DHT22;13044;49.304;12.840;2023-09-19T04:11:08;16.50;99.90
25046;DHT22;13044;49.304;12.840;2023-09-19T04:13:35;16.50;99.90
25046;DHT22;13044;49.304;12.840;2023-09-19T04:16:03;16.50;99.90
25046;DHT22;13044;49.304;12.840;2023-09-19T04:18:30;16.60;99.90
25046;DHT22;13044;49.304;12.840;2023-09-19T04:20:59;16.60;99.90
25046;DHT22;13044;49.304;12.840;2023-09-19T04:23:30;16.60;99.90
25046;DHT22;13044;49.304;12.840;2023-09-19T04:25:58;16.60;99.90
25046;DHT22;13044;49.304;12.840;2023-09-19T04:28:25;16.60;99.90
25046;DHT22;13044;49.304;12.840;2023-09-19T04:30:54;16.70;99.90
25046;DHT22;13044;49.304;12.840;2023-09-19T04:33:22;16.70;99.90
25046;DHT22;13044;49.304;12.840;2023-09-19T04:35:49;16.70;99.90
25046;DHT22;13044;49.304;12.840;2023-09-19T04:38:20;16.70;99.90
25046;DHT22;13044;49.304;12.840;2023-09-19T04:40:47;16.60;99.90
25046;DHT22;13044;49.304;12.840;2023-09-19T04:43:14;16.60;99.90
25046;DHT22;13044;49.304;12.840;2023-09-19T04:45:42;16.70;99.90
25046;DHT22;13044;49.304;12.840;2023-09-19T04:48:09;16.70;99.90
25046;DHT22;13044;49.304;12.840;2023-09-19T04:50:37;16.80;99.90
25046;DHT22;13044;49.304;12.840;2023-09-19T04:53:04;16.80;99.90
25046;DHT22;13044;49.304;12.840;2023-09-19T04:55:31;16.80;99.90
25046;DHT22;13044;49.304;12.840;2023-09-19T04:57:59;16.80;99.90
25046;DHT22;13044;49.304;12.840;2023-09-19T05:00:26;16.90;99.90
25046;DHT22;13044;49.304;12.840;2023-09-19T05:02:57;16.90;99.90
25046;DHT22;13044;49.304;12.840;2023-09-19T05:05:24;16.90;99.90
25046;DHT22;13044;49.304;12.840;2023-09-19T05:07:53;16.90;99.90
25046;DHT22;13044;49.304;12.840;2023-09-19T05:10:23;16.90;99.90
25046;DHT22;13044;49.304;12.840;2023-09-19T05:12:53;16.90;99.90
25046;DHT22;13044;49.304;12.840;2023-09-19T05:15:20;16.90;99.90
25046;DHT22;13044;49.304;12.840;2023-09-19T05:17:48;16.90;99.90
25046;DHT22;13044;49.304;12.840;2023-09-19T05:20:21;16.90;99.90
25046;DHT22;13044;49.304;12.840;2023-09-19T05:23:04;16.90;99.90
25046;DHT22;13044;49.304;12.840;2023-09-19T05:25:39;16.90;99.90
25046;DHT22;13044;49.304;12.840;2023-09-19T05:28:08;16.90;99.90
25046;DHT22;13044;49.304;12.840;2023-09-19T05:30:41;16.90;99.90
25046;DHT22;13044;49.304;12.840;2023-09-19T05:33:14;16.90;99.90
25046;DHT22;13044;49.304;12.840;2023-09-19T05:35:41;16.90;99.90
25046;DHT22;13044;49.304;12.840;2023-09-19T05:38:08;16.90;99.90
25046;DHT22;13044;49.304;12.840;2023-09-19T05:40:35;16.90;99.90
25046;DHT22;13044;49.304;12.840;2023-09-19T05:43:02;16.90;99.90
25046;DHT22;13044;49.304;12.840;2023-09-19T05:45:32;16.90;99.90
25046;DHT22;13044;49.304;12.840;2023-09-19T05:48:16;16.90;99.90
25046;DHT22;13044;49.304;12.840;2023-09-19T05:50:43;16.90;99.90
25046;DHT22;13044;49.304;12.840;2023-09-19T05:53:15;16.80;99.90
25046;DHT22;13044;49.304;12.840;2023-09-19T05:55:42;16.80;99.90
25046;DHT22;13044;49.304;12.840;2023-09-19T05:58:09;16.80;99.90
25046;DHT22;13044;49.304;12.840;2023-09-19T06:00:37;16.80;99.90
25046;DHT22;13044;49.304;12.840;2023-09-19T06:03:05;16.80;99.90
25046;DHT22;13044;49.304;12.840;2023-09-19T06:05:33;16.80;99.90
25046;DHT22;13044;49.304;12.840;2023-09-19T06:08:00;16.90;99.90
25046;DHT22;13044;49.304;12.840;2023-09-19T06:10:28;16.90;99.90
25046;DHT22;13044;49.304;12.840;2023-09-19T06:12:56;16.90;99.90
25046;DHT22;13044;49.304;12.840;2023-09-19T06:15:24;16.90;99.90
25046;DHT22;13044;49.304;12.840;2023-09-19T06:17:53;16.90;99.90
25046;DHT22;13044;49.304;12.840;2023-09-19T06:20:25;16.80;99.90
25046;DHT22;13044;49.304;12.840;2023-09-19T06:22:53;16.80;99.90
25046;DHT22;13044;49.304;12.840;2023-09-19T06:25:21;16.90;99.90
25046;DHT22;13044;49.304;12.840;2023-09-19T06:27:53;16.90;99.90
25046;DHT22;13044;49.304;12.840;2023-09-19T06:30:22;16.90;99.90
25046;DHT22;13044;49.304;12.840;2023-09-19T06:33:00;16.90;99.90
25046;DHT22;13044;49.304;12.840;2023-09-19T06:35:28;16.90;99.90
25046;DHT22;13044;49.304;12.840;2023-09-19T06:38:02;16.90;99.90
25046;DHT22;13044;49.304;12.840;2023-09-19T06:40:30;17.00;99.90
25046;DHT22;13044;49.304;12.840;2023-09-19T06:42:57;17.10;99.90
25046;DHT22;13044;49.304;12.840;2023-09-19T06:45:24;17.10;99.90
25046;DHT22;13044;49.304;12.840;2023-09-19T06:47:53;17.20;99.90
25046;DHT22;13044;49.304;12.840;2023-09-19T06:50:25;17.30;99.90
25046;DHT22;13044;49.304;12.840;2023-09-19T06:52:55;17.40;99.90
25046;DHT22;13044;49.304;12.840;2023-09-19T06:55:26;17.40;99.90
25046;DHT22;13044;49.304;12.840;2023-09-19T06:57:59;17.50;99.90
25046;DHT22;13044;49.304;12.840;2023-09-19T07:00:26;17.60;99.90
25046;DHT22;13044;49.304;12.840;2023-09-19T07:05:33;17.70;99.90
25046;DHT22;13044;49.304;12.840;2023-09-19T07:08:06;17.70;99.90
25046;DHT22;13044;49.304;12.840;2023-09-19T07:10:34;17.70;99.90
25046;DHT22;13044;49.304;12.840;2023-09-19T07:13:03;17.80;99.90
25046;DHT22;13044;49.304;12.840;2023-09-19T07:15:32;17.70;99.90
25046;DHT22;13044;49.304;12.840;2023-09-19T07:18:02;17.70;99.90
25046;DHT22;13044;49.304;12.840;2023-09-19T07:20:29;17.80;99.90
25046;DHT22;13044;49.304;12.840;2023-09-19T07:22:59;17.80;99.90
25046;DHT22;13044;49.304;12.840;2023-09-19T07:25:27;17.80;99.90
25046;DHT22;13044;49.304;12.840;2023-09-19T07:27:55;17.80;99.90
25046;DHT22;13044;49.304;12.840;2023-09-19T07:30:23;17.80;99.90
25046;DHT22;13044;49.304;12.840;2023-09-19T07:32:50;18.00;99.90
25046;DHT22;13044;49.304;12.840;2023-09-19T07:35:17;18.10;99.90
25046;DHT22;13044;49.304;12.840;2023-09-19T07:37:47;18.20;99.90
25046;DHT22;13044;49.304;12.840;2023-09-19T07:40:18;18.20;99.90
25046;DHT22;13044;49.304;12.840;2023-09-19T07:42:47;18.10;99.90
25046;DHT22;13044;49.304;12.840;2023-09-19T07:45:14;18.20;99.90
25046;DHT22;13044;49.304;12.840;2023-09-19T07:47:45;18.20;99.90
25046;DHT22;13044;49.304;12.840;2023-09-19T07:50:16;18.40;99.90
25046;DHT22;13044;49.304;12.840;2023-09-19T07:52:46;18.40;99.90
25046;DHT22;13044;49.304;12.840;2023-09-19T07:55:14;18.40;99.90
25046;DHT22;13044;49.304;12.840;2023-09-19T07:57:46;18.40;99.90
25046;DHT22;13044;49.304;12.840;2023-09-19T08:00:13;18.50;99.90
25046;DHT22;13044;49.304;12.840;2023-09-19T08:02:41;18.60;99.90
25046;DHT22;13044;49.304;12.840;2023-09-19T08:05:10;18.70;99.90
25046;DHT22;13044;49.304;12.840;2023-09-19T08:07:40;18.70;99.90
25046;DHT22;13044;49.304;12.840;2023-09-19T08:10:09;18.80;99.90
25046;DHT22;13044;49.304;12.840;2023-09-19T08:12:43;18.80;99.90
25046;DHT22;13044;49.304;12.840;2023-09-19T08:15:18;18.70;99.90
25046;DHT22;13044;49.304;12.840;2023-09-19T08:17:47;18.80;99.90
25046;DHT22;13044;49.304;12.840;2023-09-19T08:20:14;18.90;99.90
25046;DHT22;13044;49.304;12.840;2023-09-19T08:22:53;18.90;99.90
25046;DHT22;13044;49.304;12.840;2023-09-19T08:25:24;18.90;99.90
25046;DHT22;13044;49.304;12.840;2023-09-19T08:27:55;19.00;99.90
25046;DHT22;13044;49.304;12.840;2023-09-19T08:30:27;19.00;99.90
25046;DHT22;13044;49.304;12.840;2023-09-19T08:32:57;19.10;99.90
25046;DHT22;13044;49.304;12.840;2023-09-19T08:35:26;19.20;99.90
25046;DHT22;13044;49.304;12.840;2023-09-19T08:37:53;19.50;99.90
25046;DHT22;13044;49.304;12.840;2023-09-19T08:40:22;19.60;99.90
25046;DHT22;13044;49.304;12.840;2023-09-19T08:42:54;19.50;99.90
25046;DHT22;13044;49.304;12.840;2023-09-19T08:45:23;19.40;99.90
25046;DHT22;13044;49.304;12.840;2023-09-19T08:50:49;19.30;99.90
25046;DHT22;13044;49.304;12.840;2023-09-19T08:53:50;19.50;99.90
25046;DHT22;13044;49.304;12.840;2023-09-19T08:56:18;19.90;99.90
25046;DHT22;13044;49.304;12.840;2023-09-19T09:01:20;20.60;99.90
25046;DHT22;13044;49.304;12.840;2023-09-19T09:03:53;20.90;99.90
25046;DHT22;13044;49.304;12.840;2023-09-19T09:06:21;21.20;99.90
25046;DHT22;13044;49.304;12.840;2023-09-19T09:08:53;21.30;99.90
25046;DHT22;13044;49.304;12.840;2023-09-19T09:11:20;21.40;99.90
25046;DHT22;13044;49.304;12.840;2023-09-19T09:13:49;21.40;99.90
25046;DHT22;13044;49.304;12.840;2023-09-19T09:16:17;21.50;99.90
25046;DHT22;13044;49.304;12.840;2023-09-19T09:18:46;21.70;99.90
25046;DHT22;13044;49.304;12.840;2023-09-19T09:21:19;21.60;99.90
25046;DHT22;13044;49.304;12.840;2023-09-19T09:23:49;21.50;99.90
25046;DHT22;13044;49.304;12.840;2023-09-19T09:26:41;21.60;99.90
25046;DHT22;13044;49.304;12.840;2023-09-19T09:29:09;21.50;99.90
25046;DHT22;13044;49.304;12.840;2023-09-19T09:31:36;21.30;99.90
25046;DHT22;13044;49.304;12.840;2023-09-19T09:34:04;21.30;99.90
25046;DHT22;13044;49.304;12.840;2023-09-19T09:36:39;21.30;99.90
25046;DHT22;13044;49.304;12.840;2023-09-19T09:39:08;21.20;99.90
25046;DHT22;13044;49.304;12.840;2023-09-19T09:41:45;21.20;99.90
25046;DHT22;13044;49.304;12.840;2023-09-19T09:44:13;21.10;99.90
25046;DHT22;13044;49.304;12.840;2023-09-19T09:46:46;21.00;99.90
25046;DHT22;13044;49.304;12.840;2023-09-19T09:49:24;20.90;99.90
25046;DHT22;13044;49.304;12.840;2023-09-19T09:52:01;20.90;99.90
25046;DHT22;13044;49.304;12.840;2023-09-19T09:55:03;20.80;99.90
25046;DHT22;13044;49.304;12.840;2023-09-19T09:57:34;20.90;99.90
25046;DHT22;13044;49.304;12.840;2023-09-19T10:00:03;20.80;99.90
25046;DHT22;13044;49.304;12.840;2023-09-19T10:02:39;20.80;99.90
25046;DHT22;13044;49.304;12.840;2023-09-19T10:05:13;20.80;99.90
25046;DHT22;13044;49.304;12.840;2023-09-19T10:07:48;20.80;99.90
25046;DHT22;13044;49.304;12.840;2023-09-19T10:10:40;20.70;99.90
25046;DHT22;13044;49.304;12.840;2023-09-19T10:13:12;20.70;99.90
25046;DHT22;13044;49.304;12.840;2023-09-19T10:15:48;20.70;99.90
25046;DHT22;13044;49.304;12.840;2023-09-19T10:18:23;20.90;99.90
25046;DHT22;13044;49.304;12.840;2023-09-19T10:20:51;20.90;99.90
25046;DHT22;13044;49.304;12.840;2023-09-19T10:23:20;21.00;99.90
25046;DHT22;13044;49.304;12.840;2023-09-19T10:25:53;21.00;99.90
25046;DHT22;13044;49.304;12.840;2023-09-19T10:28:21;21.20;99.90
25046;DHT22;13044;49.304;12.840;2023-09-19T10:30:51;21.40;99.90
25046;DHT22;13044;49.304;12.840;2023-09-19T10:33:21;21.50;99.90
25046;DHT22;13044;49.304;12.840;2023-09-19T10:35:59;21.60;99.90
25046;DHT22;13044;49.304;12.840;2023-09-19T10:38:27;21.50;99.90
25046;DHT22;13044;49.304;12.840;2023-09-19T10:40:57;21.40;99.90
25046;DHT22;13044;49.304;12.840;2023-09-19T10:43:33;21.30;99.90
25046;DHT22;13044;49.304;12.840;2023-09-19T10:46:06;21.30;99.90
25046;DHT22;13044;49.304;12.840;2023-09-19T10:48:38;21.20;99.90
25046;DHT22;13044;49.304;12.840;2023-09-19T10:51:14;21.10;99.90
25046;DHT22;13044;49.304;12.840;2023-09-19T10:56:24;21.40;99.90
25046;DHT22;13044;49.304;12.840;2023-09-19T10:59:09;21.40;99.90
25046;DHT22;13044;49.304;12.840;2023-09-19T11:01:56;21.50;99.90
25046;DHT22;13044;49.304;12.840;2023-09-19T11:04:30;21.60;99.90
25046;DHT22;13044;49.304;12.840;2023-09-19T11:07:11;21.70;99.90
25046;DHT22;13044;49.304;12.840;2023-09-19T11:09:51;21.80;99.90
25046;DHT22;13044;49.304;12.840;2023-09-19T11:15:08;22.00;99.90
25046;DHT22;13044;49.304;12.840;2023-09-19T11:30:47;22.70;99.90
25046;DHT22;13044;49.304;12.840;2023-09-19T11:33:16;23.10;99.90
25046;DHT22;13044;49.304;12.840;2023-09-19T11:36:10;23.10;99.90
25046;DHT22;13044;49.304;12.840;2023-09-19T11:43:49;23.10;98.90
25046;DHT22;13044;49.304;12.840;2023-09-19T11:46:26;23.00;99.90
25046;DHT22;13044;49.304;12.840;2023-09-19T11:48:54;23.20;99.90
25046;DHT22;13044;49.304;12.840;2023-09-19T11:51:24;22.90;99.40
25046;DHT22;13044;49.304;12.840;2023-09-19T11:53:56;22.50;99.60
25046;DHT22;13044;49.304;12.840;2023-09-19T11:56:27;22.20;99.30
25046;DHT22;13044;49.304;12.840;2023-09-19T11:58:55;22.10;99.90
25046;DHT22;13044;49.304;12.840;2023-09-19T12:01:34;22.00;99.90
25046;DHT22;13044;49.304;12.840;2023-09-19T12:04:03;22.10;99.90
25046;DHT22;13044;49.304;12.840;2023-09-19T12:06:31;22.20;99.90
25046;DHT22;13044;49.304;12.840;2023-09-19T12:09:03;22.30;99.90
25046;DHT22;13044;49.304;12.840;2023-09-19T12:11:41;22.30;99.90
25046;DHT22;13044;49.304;12.840;2023-09-19T12:14:11;22.30;99.90
25046;DHT22;13044;49.304;12.840;2023-09-19T12:16:38;22.50;99.90
25046;DHT22;13044;49.304;12.840;2023-09-19T12:19:19;22.90;99.20
25046;DHT22;13044;49.304;12.840;2023-09-19T12:21:55;23.30;98.90
25046;DHT22;13044;49.304;12.840;2023-09-19T12:24:27;23.60;98.30
25046;DHT22;13044;49.304;12.840;2023-09-19T12:27:01;23.70;97.10
25046;DHT22;13044;49.304;12.840;2023-09-19T12:29:52;23.70;97.50
25046;DHT22;13044;49.304;12.840;2023-09-19T12:32:36;23.90;96.70
25046;DHT22;13044;49.304;12.840;2023-09-19T12:35:07;24.10;96.30
25046;DHT22;13044;49.304;12.840;2023-09-19T12:37:42;24.20;95.20
25046;DHT22;13044;49.304;12.840;2023-09-19T12:40:12;24.30;93.80
25046;DHT22;13044;49.304;12.840;2023-09-19T12:42:45;24.30;91.40
25046;DHT22;13044;49.304;12.840;2023-09-19T12:45:14;24.40;92.60
25046;DHT22;13044;49.304;12.840;2023-09-19T12:48:21;24.40;92.50
25046;DHT22;13044;49.304;12.840;2023-09-19T12:51:08;24.60;92.30
25046;DHT22;13044;49.304;12.840;2023-09-19T12:53:46;24.90;91.70
25046;DHT22;13044;49.304;12.840;2023-09-19T12:56:17;25.10;90.70
25046;DHT22;13044;49.304;12.840;2023-09-19T13:01:22;24.70;90.00
25046;DHT22;13044;49.304;12.840;2023-09-19T13:06:56;24.70;88.80
25046;DHT22;13044;49.304;12.840;2023-09-19T13:09:28;24.90;89.30
25046;DHT22;13044;49.304;12.840;2023-09-19T13:12:01;24.80;87.50
25046;DHT22;13044;49.304;12.840;2023-09-19T13:14:33;24.70;88.20
25046;DHT22;13044;49.304;12.840;2023-09-19T13:17:08;24.70;86.60
25046;DHT22;13044;49.304;12.840;2023-09-19T13:22:41;25.10;87.30
25046;DHT22;13044;49.304;12.840;2023-09-19T13:25:16;25.20;82.50
25046;DHT22;13044;49.304;12.840;2023-09-19T13:27:47;24.60;85.20
25046;DHT22;13044;49.304;12.840;2023-09-19T13:30:20;24.30;87.50
25046;DHT22;13044;49.304;12.840;2023-09-19T13:32:48;24.40;87.60
25046;DHT22;13044;49.304;12.840;2023-09-19T13:35:15;24.60;88.80
25046;DHT22;13044;49.304;12.840;2023-09-19T13:37:43;24.70;87.60
25046;DHT22;13044;49.304;12.840;2023-09-19T13:40:13;24.60;87.70
25046;DHT22;13044;49.304;12.840;2023-09-19T13:42:42;24.60;86.80
25046;DHT22;13044;49.304;12.840;2023-09-19T13:45:09;24.50;88.80
25046;DHT22;13044;49.304;12.840;2023-09-19T13:47:40;24.20;88.50
25046;DHT22;13044;49.304;12.840;2023-09-19T13:50:08;24.20;90.00
25046;DHT22;13044;49.304;12.840;2023-09-19T13:52:36;24.20;90.00
25046;DHT22;13044;49.304;12.840;2023-09-19T13:55:03;24.20;89.20
25046;DHT22;13044;49.304;12.840;2023-09-19T13:57:32;24.30;88.60
25046;DHT22;13044;49.304;12.840;2023-09-19T14:00:00;24.30;89.00
25046;DHT22;13044;49.304;12.840;2023-09-19T14:02:26;24.10;88.00
25046;DHT22;13044;49.304;12.840;2023-09-19T14:04:54;24.10;89.90
25046;DHT22;13044;49.304;12.840;2023-09-19T14:07:21;24.20;90.40
25046;DHT22;13044;49.304;12.840;2023-09-19T14:09:48;24.30;91.00
25046;DHT22;13044;49.304;12.840;2023-09-19T14:12:15;24.40;88.90
25046;DHT22;13044;49.304;12.840;2023-09-19T14:14:42;24.50;89.50
25046;DHT22;13044;49.304;12.840;2023-09-19T14:17:09;24.40;89.80
25046;DHT22;13044;49.304;12.840;2023-09-19T14:19:37;24.60;90.10
25046;DHT22;13044;49.304;12.840;2023-09-19T14:22:04;24.70;86.80
25046;DHT22;13044;49.304;12.840;2023-09-19T14:24:35;24.70;87.30
25046;DHT22;13044;49.304;12.840;2023-09-19T14:27:03;24.50;86.20
25046;DHT22;13044;49.304;12.840;2023-09-19T14:29:32;24.30;87.50
25046;DHT22;13044;49.304;12.840;2023-09-19T14:32:00;24.00;86.40
25046;DHT22;13044;49.304;12.840;2023-09-19T14:34:27;23.70;87.90
25046;DHT22;13044;49.304;12.840;2023-09-19T14:36:54;23.50;89.30
25046;DHT22;13044;49.304;12.840;2023-09-19T14:39:21;23.10;88.30
25046;DHT22;13044;49.304;12.840;2023-09-19T14:41:49;23.00;90.60
25046;DHT22;13044;49.304;12.840;2023-09-19T14:44:16;22.80;90.90
25046;DHT22;13044;49.304;12.840;2023-09-19T14:46:43;22.80;91.10
25046;DHT22;13044;49.304;12.840;2023-09-19T14:49:12;22.70;91.60
25046;DHT22;13044;49.304;12.840;2023-09-19T14:51:39;22.60;91.70
25046;DHT22;13044;49.304;12.840;2023-09-19T14:54:10;22.60;91.90
25046;DHT22;13044;49.304;12.840;2023-09-19T14:56:37;22.50;91.30
25046;DHT22;13044;49.304;12.840;2023-09-19T14:59:04;22.50;91.80
25046;DHT22;13044;49.304;12.840;2023-09-19T15:01:31;22.40;92.10
25046;DHT22;13044;49.304;12.840;2023-09-19T15:03:59;22.30;92.30
25046;DHT22;13044;49.304;12.840;2023-09-19T15:06:28;22.10;91.70
25046;DHT22;13044;49.304;12.840;2023-09-19T15:08:55;22.00;91.80
25046;DHT22;13044;49.304;12.840;2023-09-19T15:11:22;21.90;91.00
25046;DHT22;13044;49.304;12.840;2023-09-19T15:13:52;21.70;91.50
25046;DHT22;13044;49.304;12.840;2023-09-19T15:16:20;21.70;91.20
25046;DHT22;13044;49.304;12.840;2023-09-19T15:18:48;21.60;91.40
25046;DHT22;13044;49.304;12.840;2023-09-19T15:21:16;21.60;91.50
25046;DHT22;13044;49.304;12.840;2023-09-19T15:23:45;21.60;92.00
25046;DHT22;13044;49.304;12.840;2023-09-19T15:26:14;21.50;92.60
25046;DHT22;13044;49.304;12.840;2023-09-19T15:28:47;21.50;92.10
25046;DHT22;13044;49.304;12.840;2023-09-19T15:31:15;21.40;92.20
25046;DHT22;13044;49.304;12.840;2023-09-19T15:33:42;21.40;92.30
25046;DHT22;13044;49.304;12.840;2023-09-19T15:36:11;21.30;92.50
25046;DHT22;13044;49.304;12.840;2023-09-19T15:39:00;21.20;92.10
25046;DHT22;13044;49.304;12.840;2023-09-19T15:41:32;21.10;92.80
25046;DHT22;13044;49.304;12.840;2023-09-19T15:44:01;21.00;92.80
25046;DHT22;13044;49.304;12.840;2023-09-19T15:46:31;21.00;93.20
25046;DHT22;13044;49.304;12.840;2023-09-19T15:49:01;20.90;93.30
25046;DHT22;13044;49.304;12.840;2023-09-19T15:51:29;20.90;93.40
25046;DHT22;13044;49.304;12.840;2023-09-19T15:53:57;20.90;93.40
25046;DHT22;13044;49.304;12.840;2023-09-19T15:56:24;20.80;93.40
25046;DHT22;13044;49.304;12.840;2023-09-19T15:58:52;20.90;93.40
25046;DHT22;13044;49.304;12.840;2023-09-19T16:01:23;20.80;93.60
25046;DHT22;13044;49.304;12.840;2023-09-19T16:03:53;20.80;93.80
25046;DHT22;13044;49.304;12.840;2023-09-19T16:06:28;20.80;93.80
25046;DHT22;13044;49.304;12.840;2023-09-19T16:08:57;20.80;94.00
25046;DHT22;13044;49.304;12.840;2023-09-19T16:11:28;20.70;94.00
25046;DHT22;13044;49.304;12.840;2023-09-19T16:13:55;20.60;94.00
25046;DHT22;13044;49.304;12.840;2023-09-19T16:16:23;20.60;94.10
25046;DHT22;13044;49.304;12.840;2023-09-19T16:18:55;20.50;94.10
25046;DHT22;13044;49.304;12.840;2023-09-19T16:21:25;20.50;94.30
25046;DHT22;13044;49.304;12.840;2023-09-19T16:23:55;20.40;94.30
25046;DHT22;13044;49.304;12.840;2023-09-19T16:26:23;20.40;94.00
25046;DHT22;13044;49.304;12.840;2023-09-19T16:28:53;20.30;94.20
25046;DHT22;13044;49.304;12.840;2023-09-19T16:31:23;20.30;94.40
25046;DHT22;13044;49.304;12.840;2023-09-19T16:33:50;20.30;94.50
25046;DHT22;13044;49.304;12.840;2023-09-19T16:36:18;20.20;94.70
25046;DHT22;13044;49.304;12.840;2023-09-19T16:38:47;20.20;94.90